Werte bis 5 Uhr SommerzeitDiagramme Münzenberg: Tagesdaten MonatsdatenCSV-Datei: Muenzenberg21.csv

Wetterdaten 2021 Station: Münzenberg
Temperaturen in °C relative Nieder- Global- Wind Wind Wind- Sonnen-
Datum Boden Boden Luft Luft Luft Luft Feuchte schlag strahlung max richtung schein
20 cm 5 cm 20 cm 2 m 2 m max 2 m min % mm W/m2*d m/s m/s ° h

06.05.2021 9,5 7,7 1,9 2,7 4,6 2,3 86 0,0 0 1,1 3,8 --- ---
05.05.2021 9,2 8,8 6,4 6,7 11,5 0,0 77 0,7 4805 3,3 15,0 --- 10,0
04.05.2021 9,8 9,3 9,1 9,7 13,4 5,6 68 0,4 1881 4,1 14,0 --- 5,0
03.05.2021 9,8 9,7 7,7 8,0 13,9 -1,5 64 0,0 5036 1,7 9,0 --- 10,7
02.05.2021 10,7 10,3 8,1 8,3 11,7 0,8 66 0,0 3503 2,8 10,9 --- 10,7
01.05.2021 10,7 11,3 10,0 9,9 14,3 2,4 70 0,0 4154 1,4 5,9 --- 11,5
30.04.2021 10,8 10,5 7,8 7,8 12,2 1,4 78 0,0 2812 0,9 3,7 --- 9,1
29.04.2021 11,9 12,9 10,9 11,0 16,1 3,7 78 8,9 4904 3,5 14,6 --- 10,0
28.04.2021 11,0 12,4 11,6 11,8 21,4 -0,7 62 7,9 6317 1,7 14,8 --- 10,9
27.04.2021 10,3 11,3 11,6 10,4 17,7 -0,3 48 0,0 7670 1,4 6,2 --- 10,7
26.04.2021 10,0 10,6 9,0 7,8 14,3 -1,2 54 0,0 6974 1,8 7,9 --- 12,1
25.04.2021 10,2 10,5 6,8 6,4 13,1 -0,8 66 0,0 6801 2,4 8,1 --- 11,8
24.04.2021 10,2 10,8 8,2 7,7 15,1 0,4 68 0,0 6325 2,1 7,7 --- 11,2
23.04.2021 9,9 10,5 8,2 8,0 16,2 -1,4 67 0,0 6665 1,4 6,2 --- 11,7
22.04.2021 9,9 10,5 8,5 7,9 14,9 1,8 63 0,0 6308 2,2 7,6 --- 10,9
21.04.2021 10,0 10,9 10,3 10,6 18,5 1,9 77 0,0 4132 1,7 10,5 --- 10,5
20.04.2021 9,0 10,6 10,6 10,9 18,9 0,3 74 0,0 6097 0,9 3,9 --- 11,2
19.04.2021 8,5 9,6 8,5 8,4 13,9 1,5 87 1,5 3346 1,3 6,8 --- 8,4
18.04.2021 7,4 8,6 8,8 8,4 13,9 5,0 86 11,6 2965 1,2 7,0 --- 7,5
17.04.2021 7,0 6,7 5,8 5,6 9,8 -0,6 71 0,0 2622 1,8 9,0 --- 8,3
16.04.2021 6,8 6,8 5,2 4,9 9,2 -0,5 74 0,0 2923 1,6 7,3 --- 9,3
15.04.2021 6,5 6,1 3,3 2,9 9,6 -3,1 78 0,1 4894 2,0 7,8 --- 10,4
14.04.2021 6,5 5,8 3,1 2,9 9,6 -3,6 76 0,3 4433 1,7 9,4 --- 10,7
13.04.2021 6,8 6,0 3,0 3,2 9,9 -3,7 79 0,1 4131 1,4 8,1 --- 10,3
12.04.2021 7,4 7,1 4,6 4,4 8,1 -1,7 80 0,0 3901 2,6 12,7 --- 9,6
11.04.2021 7,8 8,4 7,7 7,9 15,2 2,9 91 9,2 1860 2,7 8,2 --- 3,6
10.04.2021 7,2 8,0 8,0 8,1 10,2 6,2 93 11,4 1031 1,0 5,2 --- 2,5
09.04.2021 5,8 6,3 8,0 8,4 16,0 -0,3 54 0,0 4638 2,5 9,1 --- 10,2
08.04.2021 5,4 4,6 3,9 4,0 8,2 -0,7 68 0,0 3070 2,7 8,1 --- 10,4
07.04.2021 5,9 4,1 1,1 1,1 4,2 -3,1 84 0,7 1670 4,1 13,3 --- 6,9
06.04.2021 6,4 4,8 2,2 1,9 6,4 -1,7 80 0,0 4016 5,4 17,8 --- 9,3
05.04.2021 7,9 5,8 2,1 2,4 6,6 -1,1 83 2,3 1480 3,8 15,7 --- 3,9
04.04.2021 8,6 7,9 5,3 5,1 10,8 -1,5 71 0,0 3948 1,8 7,1 --- 9,7
03.04.2021 9,2 8,9 6,7 6,2 12,4 -0,4 63 0,0 5107 2,6 8,9 --- 10,6
02.04.2021 10,2 10,1 8,3 7,7 13,5 3,2 65 0,0 3341 3,1 9,5 --- 8,2
01.04.2021 10,2 11,9 13,7 14,3 24,5 4,6 64 0,0 4623 2,2 8,7 --- 9,9
31.03.2021 9,6 11,0 12,6 14,2 24,2 1,8 58 0,0 5148 1,5 8,2 --- 10,2
30.03.2021 8,8 10,4 11,6 12,5 24,5 0,8 60 0,0 5140 1,0 4,6 --- 10,2
29.03.2021 7,8 9,6 12,5 13,4 22,3 3,5 56 0,0 5094 1,7 6,3 --- 10,2
28.03.2021 7,0 7,1 8,0 8,3 15,1 0,1 72 0,0 3211 1,8 9,5 --- 8,5
27.03.2021 7,8 7,7 6,6 6,7 10,3 1,4 77 3,0 2802 4,0 15,8 --- 8,5
26.03.2021 7,4 8,9 10,8 11,3 16,2 5,6 71 0,0 3974 1,9 9,0 --- 9,2
25.03.2021 6,4 7,0 7,3 8,3 17,5 -1,1 76 0,0 3352 1,1 6,6 --- 7,3
24.03.2021 5,7 5,9 5,7 6,4 14,6 -3,2 76 0,1 4752 1,6 8,1 --- 7,8
23.03.2021 5,8 6,0 5,6 5,9 9,7 0,1 78 0,0 1705 1,3 6,7 --- 5,0
22.03.2021 5,5 5,4 5,4 5,2 8,4 3,0 78 0,0 1543 2,1 7,6 --- 4,6
21.03.2021 5,4 5,5 5,7 5,7 9,0 2,6 71 0,0 2730 3,8 12,1 --- 6,9
20.03.2021 4,6 4,2 3,0 2,2 7,3 -2,3 60 0,0 4094 1,5 5,8 --- 7,6
19.03.2021 5,0 4,2 1,7 1,7 6,7 -1,8 85 2,3 2546 2,5 11,1 --- 6,1
18.03.2021 4,7 4,0 2,5 2,9 8,9 -3,5 82 2,2 3789 1,5 9,8 --- 6,4
17.03.2021 5,4 4,5 1,9 2,3 5,8 -2,9 84 0,4 1414 1,6 8,4 --- 3,9
16.03.2021 5,6 5,3 4,9 5,0 9,5 1,9 81 0,3 2352 3,2 9,9 --- 5,9
15.03.2021 5,4 5,3 4,9 5,0 9,4 2,4 86 2,5 2640 3,9 13,3 --- 5,9
14.03.2021 5,5 5,0 4,4 4,5 7,3 1,5 83 1,3 1729 3,2 9,9 --- 3,9
13.03.2021 5,7 5,7 6,1 6,3 9,0 4,3 82 2,5 1569 5,4 15,4 --- 3,8
12.03.2021 5,6 5,6 6,8 7,1 10,3 4,3 70 0,2 1997 5,8 16,9 --- 4,5
11.03.2021 5,4 5,9 7,6 8,1 13,1 5,1 80 5,2 984 5,2 21,8 --- 2,5
10.03.2021 4,7 5,0 5,9 6,1 8,9 2,3 82 0,0 1564 1,4 6,0 --- 4,1
09.03.2021 4,3 3,6 2,5 2,8 6,2 -1,8 89 0,4 1192 1,1 8,1 --- 3,0
08.03.2021 4,3 3,0 0,3 0,9 6,8 -5,3 86 0,0 1408 0,6 4,4 --- 4,1
07.03.2021 4,5 3,3 0,9 2,1 9,6 -5,4 71 0,0 3808 1,2 6,8 --- 7,3
06.03.2021 5,0 3,5 0,2 1,0 8,8 -5,8 72 0,0 3746 1,0 4,5 --- 7,3
05.03.2021 6,2 5,6 2,6 2,7 6,3 -1,9 79 0,9 2254 2,7 9,9 --- 5,5
04.03.2021 6,1 6,4 6,4 6,7 12,2 1,1 89 4,0 1666 1,5 8,1 --- 4,8
03.03.2021 5,6 5,4 4,5 5,4 13,2 -1,8 86 0,1 2647 1,0 5,2 --- 5,8
02.03.2021 5,5 5,3 4,4 5,7 15,2 -2,4 82 0,2 3413 1,0 4,2 --- 7,0
01.03.2021 5,5 5,2 3,6 3,9 11,7 -1,7 89 0,1 3078 1,5 6,6 --- 6,0
28.02.2021 5,4 5,6 5,7 6,0 11,9 -0,8 76 0,0 3251 1,5 5,4 --- 6,7
27.02.2021 5,2 4,4 3,3 3,5 7,6 -1,4 87 0,1 2845 1,9 6,7 --- 6,8
26.02.2021 6,3 5,7 3,6 4,4 7,2 1,0 95 3,4 678 1,5 7,8 --- 1,1
25.02.2021 6,3 7,1 8,3 9,8 17,5 3,0 79 0,0 2853 1,2 6,0 --- 6,3
24.02.2021 5,8 7,0 9,6 10,8 17,4 5,4 82 0,0 2648 1,6 8,2 --- 6,0
23.02.2021 4,8 5,9 8,0 8,9 16,5 1,5 84 0,0 2610 1,5 7,6 --- 6,2
22.02.2021 4,4 4,4 3,9 4,9 10,5 -1,7 88 0,1 2336 1,3 5,6 --- 6,0
21.02.2021 4,2 4,8 6,4 8,2 16,9 1,4 79 0,0 2909 1,6 7,4 --- 6,3
20.02.2021 3,3 4,2 7,2 8,3 16,5 1,5 84 0,0 2427 1,2 5,7 --- 5,8
19.02.2021 2,4 3,0 4,5 5,5 10,5 0,7 86 0,4 2422 1,6 12,2 --- 5,5
18.02.2021 1,4 1,5 4,3 5,3 9,7 -0,7 87 0,1 1521 1,5 8,7 --- 4,3
17.02.2021 0,9 0,4 5,9 6,8 10,8 2,1 87 1,1 1466 2,0 9,0 --- 4,5
16.02.2021 0,9 -0,1 3,2 3,8 9,6 0,1 90 1,4 1690 2,3 7,6 --- 5,5
15.02.2021 1,0 -0,4 -2,2 -2,0 0,3 -7,1 72 0,0 724 2,1 8,1 --- 1,7
14.02.2021 1,1 -0,5 -6,3 -5,3 2,9 -14,1 75 0,0 2594 1,0 6,8 --- 6,3
13.02.2021 1,4 -0,2 -8,0 -7,2 -0,3 -14,5 79 0,0 2570 1,3 6,4 --- 6,2
12.02.2021 1,6 0,1 -6,5 -6,9 -2,0 -11,5 81 0,0 2418 2,1 7,7 --- 5,9
11.02.2021 1,8 0,1 -5,0 -5,4 -0,7 -9,6 85 1,0 2157 1,3 4,5 --- 4,5
10.02.2021 2,1 0,3 -8,9 -9,3 -4,7 -13,2 84 0,0 2177 3,1 9,4 --- 5,0
09.02.2021 2,6 0,7 -8,7 -9,4 -6,5 -13,2 82 0,1 1611 2,1 5,6 --- 5,2
08.02.2021 3,2 1,2 -6,2 -6,7 -5,4 -8,3 87 0,0 913 3,6 6,9 --- 2,3
07.02.2021 4,4 2,5 -1,4 -1,6 0,9 -5,6 97 2,1 237 3,4 7,6 --- ---
06.02.2021 5,3 4,7 3,1 3,2 5,1 0,6 98 12,9 234 2,5 7,1 --- ---
05.02.2021 5,4 4,8 3,6 3,8 6,0 0,4 98 8,1 362 0,6 4,6 --- ---
04.02.2021 5,8 6,4 6,6 7,2 11,0 0,6 81 1,5 1820 2,7 12,0 --- 4,4
03.02.2021 5,0 6,1 8,8 9,3 12,2 8,1 95 9,6 390 3,3 11,5 --- 0,2
02.02.2021 3,7 3,9 5,4 5,7 8,9 2,9 98 4,9 517 2,1 7,7 --- ---
01.02.2021 3,2 2,5 1,8 1,8 3,3 0,2 99 5,7 409 0,6 3,8 --- ---
31.01.2021 3,6 1,9 -0,6 -0,5 1,4 -3,8 88 0,4 805 1,7 5,5 --- 2,6
30.01.2021 4,6 4,1 2,3 2,4 7,6 -0,2 94 5,4 464 2,8 10,4 --- ---
29.01.2021 3,9 4,6 6,6 6,9 10,5 3,3 92 21,2 792 3,3 13,7 --- 1,7
28.01.2021 2,9 2,6 3,3 3,3 5,3 1,4 99 21,5 327 1,7 6,6 --- ---
27.01.2021 2,8 1,5 0,3 0,5 2,3 -0,8 97 0,9 452 2,4 8,1 --- 0,1
26.01.2021 2,9 1,8 1,1 1,4 3,3 -0,9 91 0,3 712 3,4 10,6 --- 1,4
25.01.2021 3,2 1,8 -0,2 -0,1 2,0 -1,3 94 0,5 685 0,9 5,9 --- 1,2
24.01.2021 3,8 2,5 0,6 0,7 2,8 -1,0 97 7,2 715 3,0 10,0 --- 1,8
23.01.2021 4,1 3,3 2,3 2,5 3,8 1,0 97 0,3 605 1,7 6,4 --- 1,2
22.01.2021 4,3 4,6 4,5 4,8 9,4 0,9 93 5,7 475 2,3 12,6 --- 0,6
21.01.2021 3,4 3,5 6,3 6,9 8,6 5,7 76 1,2 536 3,3 11,3 --- 0,5
20.01.2021 2,8 2,3 4,0 4,6 7,3 1,5 73 0,0 738 3,3 9,5 --- 2,6
19.01.2021 2,5 1,9 2,2 2,5 4,1 0,8 92 2,2 222 3,5 10,8 --- ---
18.01.2021 2,0 1,2 2,1 2,5 4,4 0,1 91 0,5 660 1,9 8,0 --- 1,8
17.01.2021 1,9 0,5 -1,0 -1,1 0,1 -2,6 96 1,1 602 1,4 6,3 --- 1,4
16.01.2021 2,0 0,5 -1,2 -1,2 0,0 -2,2 75 0,0 416 1,8 5,3 --- ---
15.01.2021 2,2 0,6 -1,1 -0,6 1,0 -4,5 89 0,0 331 1,4 4,3 --- ---
14.01.2021 2,2 1,0 0,3 0,5 2,5 -1,0 82 0,1 675 2,0 9,3 --- 2,0
13.01.2021 2,2 0,6 0,3 1,0 3,9 -1,5 89 0,1 639 2,6 11,1 --- 1,1
12.01.2021 2,3 0,6 0,9 1,3 4,5 -0,6 94 2,3 321 3,4 10,2 --- ---
11.01.2021 2,6 0,6 -2,8 -2,4 1,1 -6,3 92 0,1 874 2,2 10,9 --- 2,3
10.01.2021 3,0 1,4 -1,3 -0,9 3,1 -5,0 94 0,0 1029 0,6 7,2 --- 3,6
09.01.2021 3,3 1,8 -0,4 0,0 2,2 -2,4 92 0,0 613 0,6 7,4 --- 1,2
08.01.2021 3,5 2,3 1,0 1,1 2,3 0,2 95 1,4 509 1,6 5,1 --- 0,6
07.01.2021 3,6 2,3 0,9 1,0 2,3 0,2 92 0,2 404 1,6 5,9 --- 0,3
06.01.2021 3,6 2,5 1,5 1,7 2,9 0,3 96 1,9 347 1,5 4,4 --- ---
05.01.2021 3,5 2,2 1,2 1,4 2,1 0,5 95 1,8 249 2,9 6,9 --- ---
04.01.2021 3,6 2,1 0,6 0,8 1,6 0,2 96 1,2 150 1,7 4,9 --- ---
03.01.2021 3,9 2,2 0,6 1,0 2,6 -1,1 92 1,4 274 1,8 7,2 --- ---
02.01.2021 4,2 2,8 0,7 0,9 2,6 -0,9 97 0,0 462 0,7 3,3 --- ---
01.01.2021 4,2 3,0 1,4 1,3 2,6 0,3 99 2,5 321 0,5 5,6 --- 0,1

Mittelwerte (Temperaturen, Strahlung, rel. Feuchte, Wind), Summe (Regen) für 2021
5,5 5,1 4,0 4,3 81 215 2.388 2,1

Landesbetrieb Landwirtschaft Hessen 2009

      Werte bis 5 Uhr SommerzeitCSV-Datei: Muenzenberg21.csvDiagramm: Muenzenberg